Beloeil, Belgium
Current Conditions -  °F | °C
As of 4:03 AM on Tuesday 27 Jan 2015 (Local Time) from EBCV Reporting Station
Few Clouds Few Clouds  
Wind Chill: 31°   Ceiling: Unl
Heat Index: 36°   Visibility: 6mi
Dew Point: 34°   Wind: 6mph
Humidity: 93%   Direction: 280°W
Pressure: 30.18"   Gusts: NA
Location:  50.55°N, 3.73°E
Report Text: EBCV 270303Z AUTO 28005KT 9999 FEW023/// 02/01 Q1022 BLU
Loading
Personal Weather Stations






























Interactive Weather Map New forecast layout! Learn more

10-Day Weather Forecast

Advertisements
Track Severe Weather on mobile